sensor_id;sensor_type;location;lat;lon;timestamp;temperature;humidity
43991;DHT22;29654;50.784;20.604;2023-02-28T00:02:31;6.90;49.20
43991;DHT22;29654;50.784;20.604;2023-02-28T00:07:34;6.90;49.30
43991;DHT22;29654;50.784;20.604;2023-02-28T00:12:39;6.90;49.30
43991;DHT22;29654;50.784;20.604;2023-02-28T00:17:42;6.90;49.20
43991;DHT22;29654;50.784;20.604;2023-02-28T00:22:46;6.90;49.20
43991;DHT22;29654;50.784;20.604;2023-02-28T00:27:51;6.80;49.20
43991;DHT22;29654;50.784;20.604;2023-02-28T00:32:53;6.80;49.20
43991;DHT22;29654;50.784;20.604;2023-02-28T00:37:56;6.80;49.20
43991;DHT22;29654;50.784;20.604;2023-02-28T00:43:00;6.80;49.30
43991;DHT22;29654;50.784;20.604;2023-02-28T00:48:03;6.80;49.30
43991;DHT22;29654;50.784;20.604;2023-02-28T00:53:06;6.80;49.30
43991;DHT22;29654;50.784;20.604;2023-02-28T00:58:10;6.80;49.20
43991;DHT22;29654;50.784;20.604;2023-02-28T01:03:13;6.80;49.30
43991;DHT22;29654;50.784;20.604;2023-02-28T01:08:17;6.80;49.40
43991;DHT22;29654;50.784;20.604;2023-02-28T01:13:21;6.70;49.40
43991;DHT22;29654;50.784;20.604;2023-02-28T01:18:24;6.70;49.50
43991;DHT22;29654;50.784;20.604;2023-02-28T01:23:26;6.70;49.50
43991;DHT22;29654;50.784;20.604;2023-02-28T01:28:30;6.70;49.40
43991;DHT22;29654;50.784;20.604;2023-02-28T01:33:33;6.70;49.40
43991;DHT22;29654;50.784;20.604;2023-02-28T01:38:36;6.80;49.50
43991;DHT22;29654;50.784;20.604;2023-02-28T01:44:04;6.70;49.40
43991;DHT22;29654;50.784;20.604;2023-02-28T01:49:09;6.70;49.10
43991;DHT22;29654;50.784;20.604;2023-02-28T01:54:16;6.70;49.30
43991;DHT22;29654;50.784;20.604;2023-02-28T01:59:25;6.70;49.30
43991;DHT22;29654;50.784;20.604;2023-02-28T02:04:36;6.70;49.40
43991;DHT22;29654;50.784;20.604;2023-02-28T02:09:40;6.70;49.40
43991;DHT22;29654;50.784;20.604;2023-02-28T02:14:59;6.70;49.50
43991;DHT22;29654;50.784;20.604;2023-02-28T02:25:53;6.70;49.20
43991;DHT22;29654;50.784;20.604;2023-02-28T02:37:01;6.60;49.30
43991;DHT22;29654;50.784;20.604;2023-02-28T02:42:14;6.60;49.30
43991;DHT22;29654;50.784;20.604;2023-02-28T02:47:20;6.60;49.30
43991;DHT22;29654;50.784;20.604;2023-02-28T02:52:32;6.50;49.30
43991;DHT22;29654;50.784;20.604;2023-02-28T02:57:44;6.50;49.30
43991;DHT22;29654;50.784;20.604;2023-02-28T03:02:49;6.50;49.30
43991;DHT22;29654;50.784;20.604;2023-02-28T03:07:55;6.50;49.40
43991;DHT22;29654;50.784;20.604;2023-02-28T03:13:10;6.40;49.20
43991;DHT22;29654;50.784;20.604;2023-02-28T03:18:22;6.40;49.20
43991;DHT22;29654;50.784;20.604;2023-02-28T03:23:35;6.30;49.20
43991;DHT22;29654;50.784;20.604;2023-02-28T03:28:49;6.20;49.30
43991;DHT22;29654;50.784;20.604;2023-02-28T03:33:59;6.20;49.40
43991;DHT22;29654;50.784;20.604;2023-02-28T03:39:08;6.10;49.40
43991;DHT22;29654;50.784;20.604;2023-02-28T03:44:14;6.10;49.50
43991;DHT22;29654;50.784;20.604;2023-02-28T03:49:21;6.00;49.50
43991;DHT22;29654;50.784;20.604;2023-02-28T03:54:29;6.00;49.50
43991;DHT22;29654;50.784;20.604;2023-02-28T03:59:37;5.90;49.50
43991;DHT22;29654;50.784;20.604;2023-02-28T04:04:43;5.90;49.50
43991;DHT22;29654;50.784;20.604;2023-02-28T04:09:50;5.80;49.50
43991;DHT22;29654;50.784;20.604;2023-02-28T04:14:54;5.80;49.50
43991;DHT22;29654;50.784;20.604;2023-02-28T04:19:56;5.70;49.40
43991;DHT22;29654;50.784;20.604;2023-02-28T04:25:00;5.60;49.40
43991;DHT22;29654;50.784;20.604;2023-02-28T04:30:03;5.50;49.40
43991;DHT22;29654;50.784;20.604;2023-02-28T04:35:07;5.40;49.50
43991;DHT22;29654;50.784;20.604;2023-02-28T04:40:12;5.30;49.70
43991;DHT22;29654;50.784;20.604;2023-02-28T04:45:15;5.30;49.70
43991;DHT22;29654;50.784;20.604;2023-02-28T04:50:18;5.20;49.80
43991;DHT22;29654;50.784;20.604;2023-02-28T04:55:21;5.20;49.80
43991;DHT22;29654;50.784;20.604;2023-02-28T05:00:24;5.10;49.80
43991;DHT22;29654;50.784;20.604;2023-02-28T05:05:27;5.10;49.90
43991;DHT22;29654;50.784;20.604;2023-02-28T05:10:31;5.00;50.00
43991;DHT22;29654;50.784;20.604;2023-02-28T05:15:34;5.00;50.00
43991;DHT22;29654;50.784;20.604;2023-02-28T05:20:36;4.90;50.00
43991;DHT22;29654;50.784;20.604;2023-02-28T05:25:40;4.80;50.00
43991;DHT22;29654;50.784;20.604;2023-02-28T05:30:43;4.80;50.10
43991;DHT22;29654;50.784;20.604;2023-02-28T05:35:46;4.70;50.00
43991;DHT22;29654;50.784;20.604;2023-02-28T05:40:50;4.70;50.10
43991;DHT22;29654;50.784;20.604;2023-02-28T05:45:52;4.70;50.10
43991;DHT22;29654;50.784;20.604;2023-02-28T05:50:56;4.60;50.10
43991;DHT22;29654;50.784;20.604;2023-02-28T05:56:01;4.50;50.20
43991;DHT22;29654;50.784;20.604;2023-02-28T06:01:19;4.50;50.30
43991;DHT22;29654;50.784;20.604;2023-02-28T06:06:24;4.50;50.40
43991;DHT22;29654;50.784;20.604;2023-02-28T06:11:28;4.40;50.40
43991;DHT22;29654;50.784;20.604;2023-02-28T06:16:32;4.40;50.60
43991;DHT22;29654;50.784;20.604;2023-02-28T06:21:35;4.50;50.70
43991;DHT22;29654;50.784;20.604;2023-02-28T06:26:40;4.50;50.80
43991;DHT22;29654;50.784;20.604;2023-02-28T06:31:42;4.50;50.90
43991;DHT22;29654;50.784;20.604;2023-02-28T06:36:45;4.60;51.00
43991;DHT22;29654;50.784;20.604;2023-02-28T06:41:49;4.60;51.20
43991;DHT22;29654;50.784;20.604;2023-02-28T06:46:53;4.70;51.30
43991;DHT22;29654;50.784;20.604;2023-02-28T06:51:56;4.80;51.50
43991;DHT22;29654;50.784;20.604;2023-02-28T06:57:00;5.00;51.60
43991;DHT22;29654;50.784;20.604;2023-02-28T07:02:02;5.20;51.60
43991;DHT22;29654;50.784;20.604;2023-02-28T07:07:07;5.40;51.50
43991;DHT22;29654;50.784;20.604;2023-02-28T07:12:11;5.50;51.50
43991;DHT22;29654;50.784;20.604;2023-02-28T07:17:13;5.80;51.40
43991;DHT22;29654;50.784;20.604;2023-02-28T07:22:16;5.90;51.20
43991;DHT22;29654;50.784;20.604;2023-02-28T07:27:20;6.00;51.20
43991;DHT22;29654;50.784;20.604;2023-02-28T07:32:26;6.10;51.10
43991;DHT22;29654;50.784;20.604;2023-02-28T07:37:28;6.20;50.90
43991;DHT22;29654;50.784;20.604;2023-02-28T07:42:33;6.40;50.90
43991;DHT22;29654;50.784;20.604;2023-02-28T07:47:38;6.50;50.60
43991;DHT22;29654;50.784;20.604;2023-02-28T07:52:41;6.70;50.50
43991;DHT22;29654;50.784;20.604;2023-02-28T07:57:45;6.80;50.30
43991;DHT22;29654;50.784;20.604;2023-02-28T08:02:48;6.90;50.30
43991;DHT22;29654;50.784;20.604;2023-02-28T08:07:51;7.00;50.00
43991;DHT22;29654;50.784;20.604;2023-02-28T08:12:55;7.00;49.60
43991;DHT22;29654;50.784;20.604;2023-02-28T08:17:58;7.10;49.60
43991;DHT22;29654;50.784;20.604;2023-02-28T08:23:00;7.10;49.60
43991;DHT22;29654;50.784;20.604;2023-02-28T08:28:05;7.30;49.70
43991;DHT22;29654;50.784;20.604;2023-02-28T08:33:07;7.50;49.60
43991;DHT22;29654;50.784;20.604;2023-02-28T08:38:10;7.60;49.50
43991;DHT22;29654;50.784;20.604;2023-02-28T08:43:14;7.70;49.00
43991;DHT22;29654;50.784;20.604;2023-02-28T08:48:16;7.80;48.80
43991;DHT22;29654;50.784;20.604;2023-02-28T08:53:19;7.80;49.10
43991;DHT22;29654;50.784;20.604;2023-02-28T08:58:23;7.90;48.80
43991;DHT22;29654;50.784;20.604;2023-02-28T09:03:25;8.00;48.40
43991;DHT22;29654;50.784;20.604;2023-02-28T09:08:29;8.00;48.40
43991;DHT22;29654;50.784;20.604;2023-02-28T09:13:34;8.10;48.20
43991;DHT22;29654;50.784;20.604;2023-02-28T09:18:37;8.10;47.90
43991;DHT22;29654;50.784;20.604;2023-02-28T09:23:39;8.10;47.80
43991;DHT22;29654;50.784;20.604;2023-02-28T09:28:44;8.10;47.60
43991;DHT22;29654;50.784;20.604;2023-02-28T09:33:47;8.00;47.60
43991;DHT22;29654;50.784;20.604;2023-02-28T09:38:50;8.10;47.90
43991;DHT22;29654;50.784;20.604;2023-02-28T09:43:56;8.10;48.00
43991;DHT22;29654;50.784;20.604;2023-02-28T09:49:02;8.30;47.70
43991;DHT22;29654;50.784;20.604;2023-02-28T09:54:13;8.30;47.60
43991;DHT22;29654;50.784;20.604;2023-02-28T09:59:44;8.40;47.40
43991;DHT22;29654;50.784;20.604;2023-02-28T10:04:59;8.40;46.80
43991;DHT22;29654;50.784;20.604;2023-02-28T10:10:19;8.50;47.50
43991;DHT22;29654;50.784;20.604;2023-02-28T10:15:29;8.60;47.00
43991;DHT22;29654;50.784;20.604;2023-02-28T10:20:34;8.70;47.40
43991;DHT22;29654;50.784;20.604;2023-02-28T10:25:39;8.90;47.40
43991;DHT22;29654;50.784;20.604;2023-02-28T10:30:46;9.00;47.40
43991;DHT22;29654;50.784;20.604;2023-02-28T10:35:51;9.10;47.00
43991;DHT22;29654;50.784;20.604;2023-02-28T10:41:04;9.20;46.90
43991;DHT22;29654;50.784;20.604;2023-02-28T10:46:15;9.30;46.50
43991;DHT22;29654;50.784;20.604;2023-02-28T10:51:35;9.40;46.50
43991;DHT22;29654;50.784;20.604;2023-02-28T10:56:39;9.50;46.20
43991;DHT22;29654;50.784;20.604;2023-02-28T11:01:44;9.50;46.70
43991;DHT22;29654;50.784;20.604;2023-02-28T11:06:57;9.60;46.20
43991;DHT22;29654;50.784;20.604;2023-02-28T11:12:02;9.60;45.80
43991;DHT22;29654;50.784;20.604;2023-02-28T11:17:15;9.70;46.30
43991;DHT22;29654;50.784;20.604;2023-02-28T11:22:26;9.70;45.90
43991;DHT22;29654;50.784;20.604;2023-02-28T11:27:49;9.80;46.10
43991;DHT22;29654;50.784;20.604;2023-02-28T11:32:54;9.80;45.10
43991;DHT22;29654;50.784;20.604;2023-02-28T11:37:57;9.80;45.90
43991;DHT22;29654;50.784;20.604;2023-02-28T11:43:09;9.90;45.90
43991;DHT22;29654;50.784;20.604;2023-02-28T11:48:28;9.90;45.70
43991;DHT22;29654;50.784;20.604;2023-02-28T11:59:40;10.00;44.80
43991;DHT22;29654;50.784;20.604;2023-02-28T12:04:55;10.00;44.70
43991;DHT22;29654;50.784;20.604;2023-02-28T12:10:15;9.90;45.30
43991;DHT22;29654;50.784;20.604;2023-02-28T12:15:38;10.00;45.20
43991;DHT22;29654;50.784;20.604;2023-02-28T12:20:53;10.00;44.70
43991;DHT22;29654;50.784;20.604;2023-02-28T12:26:04;10.10;45.10
43991;DHT22;29654;50.784;20.604;2023-02-28T12:31:17;10.10;45.10
43991;DHT22;29654;50.784;20.604;2023-02-28T12:36:24;10.20;44.90
43991;DHT22;29654;50.784;20.604;2023-02-28T12:41:34;10.20;45.00
43991;DHT22;29654;50.784;20.604;2023-02-28T12:46:42;10.20;44.70
43991;DHT22;29654;50.784;20.604;2023-02-28T12:51:49;10.20;44.70
43991;DHT22;29654;50.784;20.604;2023-02-28T12:56:57;10.20;44.80
43991;DHT22;29654;50.784;20.604;2023-02-28T13:02:33;10.20;44.70
43991;DHT22;29654;50.784;20.604;2023-02-28T13:13:44;10.40;44.10
43991;DHT22;29654;50.784;20.604;2023-02-28T13:18:48;10.50;44.50
43991;DHT22;29654;50.784;20.604;2023-02-28T13:24:01;10.50;44.50
43991;DHT22;29654;50.784;20.604;2023-02-28T13:29:21;10.60;43.90
43991;DHT22;29654;50.784;20.604;2023-02-28T13:34:30;10.60;43.50
43991;DHT22;29654;50.784;20.604;2023-02-28T13:39:48;10.50;44.50
43991;DHT22;29654;50.784;20.604;2023-02-28T13:45:20;10.50;43.40
43991;DHT22;29654;50.784;20.604;2023-02-28T13:50:29;10.60;43.70
43991;DHT22;29654;50.784;20.604;2023-02-28T13:55:41;10.50;44.10
43991;DHT22;29654;50.784;20.604;2023-02-28T14:01:11;10.60;44.10
43991;DHT22;29654;50.784;20.604;2023-02-28T14:06:25;10.70;43.50
43991;DHT22;29654;50.784;20.604;2023-02-28T14:11:32;10.70;43.90
43991;DHT22;29654;50.784;20.604;2023-02-28T14:16:39;10.70;43.90
43991;DHT22;29654;50.784;20.604;2023-02-28T14:22:00;10.80;43.90
43991;DHT22;29654;50.784;20.604;2023-02-28T14:27:27;10.90;43.40
43991;DHT22;29654;50.784;20.604;2023-02-28T14:32:41;10.80;43.10
43991;DHT22;29654;50.784;20.604;2023-02-28T14:37:48;10.80;43.40
43991;DHT22;29654;50.784;20.604;2023-02-28T14:42:57;10.70;43.80
43991;DHT22;29654;50.784;20.604;2023-02-28T14:48:01;10.70;43.30
43991;DHT22;29654;50.784;20.604;2023-02-28T14:53:10;10.60;43.70
43991;DHT22;29654;50.784;20.604;2023-02-28T14:58:25;10.50;43.60
43991;DHT22;29654;50.784;20.604;2023-02-28T15:03:32;10.40;43.40
43991;DHT22;29654;50.784;20.604;2023-02-28T15:08:36;10.40;43.80
43991;DHT22;29654;50.784;20.604;2023-02-28T15:13:43;10.40;43.90
43991;DHT22;29654;50.784;20.604;2023-02-28T15:18:49;10.40;43.60
43991;DHT22;29654;50.784;20.604;2023-02-28T15:23:55;10.40;43.70
43991;DHT22;29654;50.784;20.604;2023-02-28T15:29:12;10.30;43.70
43991;DHT22;29654;50.784;20.604;2023-02-28T15:34:19;10.20;43.60
43991;DHT22;29654;50.784;20.604;2023-02-28T15:39:25;10.10;43.70
43991;DHT22;29654;50.784;20.604;2023-02-28T15:44:33;10.00;43.70
43991;DHT22;29654;50.784;20.604;2023-02-28T15:49:40;10.00;43.60
43991;DHT22;29654;50.784;20.604;2023-02-28T15:54:47;9.90;43.70
43991;DHT22;29654;50.784;20.604;2023-02-28T15:59:55;9.80;44.00
43991;DHT22;29654;50.784;20.604;2023-02-28T16:05:21;9.70;43.90
43991;DHT22;29654;50.784;20.604;2023-02-28T16:10:29;9.70;43.70
43991;DHT22;29654;50.784;20.604;2023-02-28T16:15:37;9.50;44.10
43991;DHT22;29654;50.784;20.604;2023-02-28T16:20:42;9.40;44.10
43991;DHT22;29654;50.784;20.604;2023-02-28T16:25:45;9.20;44.20
43991;DHT22;29654;50.784;20.604;2023-02-28T16:30:51;9.10;44.30
43991;DHT22;29654;50.784;20.604;2023-02-28T16:35:54;8.90;44.30
43991;DHT22;29654;50.784;20.604;2023-02-28T16:40:59;8.70;44.50
43991;DHT22;29654;50.784;20.604;2023-02-28T16:46:03;8.50;44.60
43991;DHT22;29654;50.784;20.604;2023-02-28T16:51:11;8.40;44.80
43991;DHT22;29654;50.784;20.604;2023-02-28T16:56:16;8.20;44.90
43991;DHT22;29654;50.784;20.604;2023-02-28T17:01:21;8.00;45.00
43991;DHT22;29654;50.784;20.604;2023-02-28T17:06:26;7.80;45.10
43991;DHT22;29654;50.784;20.604;2023-02-28T17:11:30;7.60;45.20
43991;DHT22;29654;50.784;20.604;2023-02-28T17:16:36;7.50;45.40
43991;DHT22;29654;50.784;20.604;2023-02-28T17:21:41;7.30;45.50
43991;DHT22;29654;50.784;20.604;2023-02-28T17:26:44;7.20;45.60
43991;DHT22;29654;50.784;20.604;2023-02-28T17:31:48;7.00;45.80
43991;DHT22;29654;50.784;20.604;2023-02-28T17:36:51;6.90;45.90
43991;DHT22;29654;50.784;20.604;2023-02-28T17:41:55;6.80;46.00
43991;DHT22;29654;50.784;20.604;2023-02-28T17:46:59;6.70;46.10
43991;DHT22;29654;50.784;20.604;2023-02-28T17:52:01;6.60;46.30
43991;DHT22;29654;50.784;20.604;2023-02-28T17:57:04;6.50;46.30
43991;DHT22;29654;50.784;20.604;2023-02-28T18:02:09;6.40;46.50
43991;DHT22;29654;50.784;20.604;2023-02-28T18:07:13;6.30;46.60
43991;DHT22;29654;50.784;20.604;2023-02-28T18:12:16;6.20;46.60
43991;DHT22;29654;50.784;20.604;2023-02-28T18:17:20;6.10;46.70
43991;DHT22;29654;50.784;20.604;2023-02-28T18:22:23;6.00;46.80
43991;DHT22;29654;50.784;20.604;2023-02-28T18:27:26;5.90;46.80
43991;DHT22;29654;50.784;20.604;2023-02-28T18:32:30;5.80;46.90
43991;DHT22;29654;50.784;20.604;2023-02-28T18:37:32;5.70;47.00
43991;DHT22;29654;50.784;20.604;2023-02-28T18:42:35;5.60;47.10
43991;DHT22;29654;50.784;20.604;2023-02-28T18:47:40;5.60;47.20
43991;DHT22;29654;50.784;20.604;2023-02-28T18:52:42;5.50;47.40
43991;DHT22;29654;50.784;20.604;2023-02-28T18:57:46;5.40;47.30
43991;DHT22;29654;50.784;20.604;2023-02-28T19:02:50;5.40;47.40
43991;DHT22;29654;50.784;20.604;2023-02-28T19:07:53;5.30;47.50
43991;DHT22;29654;50.784;20.604;2023-02-28T19:12:56;5.20;47.50
43991;DHT22;29654;50.784;20.604;2023-02-28T19:18:00;5.20;47.60
43991;DHT22;29654;50.784;20.604;2023-02-28T19:23:02;5.10;47.60
43991;DHT22;29654;50.784;20.604;2023-02-28T19:28:05;5.00;47.60
43991;DHT22;29654;50.784;20.604;2023-02-28T19:33:09;4.90;47.60
43991;DHT22;29654;50.784;20.604;2023-02-28T19:38:12;4.90;47.80
43991;DHT22;29654;50.784;20.604;2023-02-28T19:43:14;4.80;47.90
43991;DHT22;29654;50.784;20.604;2023-02-28T19:48:18;4.70;47.90
43991;DHT22;29654;50.784;20.604;2023-02-28T19:53:26;4.70;47.90
43991;DHT22;29654;50.784;20.604;2023-02-28T19:58:29;4.60;47.90
43991;DHT22;29654;50.784;20.604;2023-02-28T20:03:33;4.60;48.10
43991;DHT22;29654;50.784;20.604;2023-02-28T20:08:36;4.50;48.10
43991;DHT22;29654;50.784;20.604;2023-02-28T20:13:38;4.40;48.10
43991;DHT22;29654;50.784;20.604;2023-02-28T20:18:43;4.40;48.20
43991;DHT22;29654;50.784;20.604;2023-02-28T20:23:46;4.40;48.30
43991;DHT22;29654;50.784;20.604;2023-02-28T20:28:49;4.30;48.30
43991;DHT22;29654;50.784;20.604;2023-02-28T20:33:53;4.20;48.30
43991;DHT22;29654;50.784;20.604;2023-02-28T20:38:56;4.20;48.40
43991;DHT22;29654;50.784;20.604;2023-02-28T20:43:58;4.10;48.40
43991;DHT22;29654;50.784;20.604;2023-02-28T20:49:04;4.10;48.40
43991;DHT22;29654;50.784;20.604;2023-02-28T20:54:07;4.00;48.40
43991;DHT22;29654;50.784;20.604;2023-02-28T20:59:11;3.90;48.40
43991;DHT22;29654;50.784;20.604;2023-02-28T21:04:15;3.90;48.60
43991;DHT22;29654;50.784;20.604;2023-02-28T21:09:18;3.80;48.70
43991;DHT22;29654;50.784;20.604;2023-02-28T21:14:20;3.80;48.60
43991;DHT22;29654;50.784;20.604;2023-02-28T21:19:25;3.70;48.70
43991;DHT22;29654;50.784;20.604;2023-02-28T21:24:27;3.70;48.80
43991;DHT22;29654;50.784;20.604;2023-02-28T21:29:30;3.70;48.90
43991;DHT22;29654;50.784;20.604;2023-02-28T21:34:34;3.70;49.00
43991;DHT22;29654;50.784;20.604;2023-02-28T21:39:36;3.60;49.00
43991;DHT22;29654;50.784;20.604;2023-02-28T21:44:39;3.60;49.00
43991;DHT22;29654;50.784;20.604;2023-02-28T21:49:43;3.60;49.00
43991;DHT22;29654;50.784;20.604;2023-02-28T21:54:45;3.50;49.10
43991;DHT22;29654;50.784;20.604;2023-02-28T21:59:48;3.50;49.20
43991;DHT22;29654;50.784;20.604;2023-02-28T22:04:52;3.50;49.30
43991;DHT22;29654;50.784;20.604;2023-02-28T22:09:55;3.50;49.20
43991;DHT22;29654;50.784;20.604;2023-02-28T22:14:57;3.40;49.10
43991;DHT22;29654;50.784;20.604;2023-02-28T22:20:01;3.40;49.20
43991;DHT22;29654;50.784;20.604;2023-02-28T22:25:05;3.30;49.30
43991;DHT22;29654;50.784;20.604;2023-02-28T22:30:10;3.30;49.30
43991;DHT22;29654;50.784;20.604;2023-02-28T22:35:14;3.20;49.20
43991;DHT22;29654;50.784;20.604;2023-02-28T22:40:19;3.20;49.20
43991;DHT22;29654;50.784;20.604;2023-02-28T22:45:21;3.10;49.20
43991;DHT22;29654;50.784;20.604;2023-02-28T22:50:25;3.00;49.20
43991;DHT22;29654;50.784;20.604;2023-02-28T22:55:28;3.00;49.30
43991;DHT22;29654;50.784;20.604;2023-02-28T23:00:30;2.90;49.30
43991;DHT22;29654;50.784;20.604;2023-02-28T23:05:34;2.90;49.30
43991;DHT22;29654;50.784;20.604;2023-02-28T23:10:40;2.80;49.40
43991;DHT22;29654;50.784;20.604;2023-02-28T23:15:43;2.80;49.60
43991;DHT22;29654;50.784;20.604;2023-02-28T23:20:48;2.70;49.60
43991;DHT22;29654;50.784;20.604;2023-02-28T23:25:51;2.70;49.50
43991;DHT22;29654;50.784;20.604;2023-02-28T23:30:53;2.70;49.50
43991;DHT22;29654;50.784;20.604;2023-02-28T23:35:57;2.60;49.50
43991;DHT22;29654;50.784;20.604;2023-02-28T23:41:06;2.60;49.50
43991;DHT22;29654;50.784;20.604;2023-02-28T23:46:09;2.50;49.50
43991;DHT22;29654;50.784;20.604;2023-02-28T23:51:16;2.50;49.60
43991;DHT22;29654;50.784;20.604;2023-02-28T23:56:21;2.50;49.80
